Time;durP1;ratioP1;P1;durP2;ratioP2;P2;SDS_P1;SDS_P2;PMS_P1;PMS_P2;Temp;Humidity;BMP_temperature;BMP_pressure;BME280_temperature;BME280_humidity;BME280_pressure;Samples;Min_cycle;Max_cycle;Signal;HPM_P1;HPM_P2
2022/03/25 00:01:00;;;;;;;;;;;2.90;99.90;;;;;;5031994;28;19921;-73
2022/03/25 00:03:26;;;;;;;;;;;2.90;99.90;;;;;;5038525;28;20384;-72
2022/03/25 00:05:52;;;;;;;;;;;2.90;99.90;;;;;;5051695;28;19919;-73
2022/03/25 00:08:17;;;;;;;;;;;2.90;99.90;;;;;;5051704;28;19912;-73
2022/03/25 00:10:43;;;;;;;;;;;2.80;99.90;;;;;;5050464;28;19909;-73
2022/03/25 00:13:10;;;;;;;;;;;2.90;99.90;;;;;;5052071;28;19909;-73
2022/03/25 00:15:36;;;;;;;;;;;3.00;99.90;;;;;;5051539;28;19962;-72
2022/03/25 00:18:02;;;;;;;;;;;2.90;99.90;;;;;;5051696;28;19909;-72
2022/03/25 00:20:27;;;;;;;;;;;2.90;99.90;;;;;;5050551;28;19919;-72
2022/03/25 00:22:53;;;;;;;;;;;3.00;99.90;;;;;;5052050;28;19924;-72
2022/03/25 00:25:18;;;;;;;;;;;3.00;99.90;;;;;;5050132;28;19920;-71
2022/03/25 00:27:44;;;;;;;;;;;3.00;99.90;;;;;;5051875;28;19917;-72
2022/03/25 00:30:10;;;;;;;;;;;3.00;99.90;;;;;;5051524;28;20357;-72
2022/03/25 00:32:36;;;;;;;;;;;3.10;99.90;;;;;;5051301;28;19920;-72
2022/03/25 00:35:02;;;;;;;;;;;3.10;99.90;;;;;;5051705;28;19909;-71
2022/03/25 00:37:27;;;;;;;;;;;3.00;99.90;;;;;;5051653;28;19925;-72
2022/03/25 00:39:53;;;;;;;;;;;3.00;99.90;;;;;;5051516;28;19909;-72
2022/03/25 00:42:18;;;;;;;;;;;3.00;99.90;;;;;;5050005;28;19917;-71
2022/03/25 00:44:44;;;;;;;;;;;2.90;99.90;;;;;;5051461;28;19913;-72
2022/03/25 00:47:10;;;;;;;;;;;2.90;99.90;;;;;;5051555;28;20420;-71
2022/03/25 00:49:35;;;;;;;;;;;2.90;99.90;;;;;;5051355;28;20357;-71
2022/03/25 00:52:01;;;;;;;;;;;2.90;99.90;;;;;;5051451;28;20257;-71
2022/03/25 00:54:27;;;;;;;;;;;2.90;99.90;;;;;;5051412;28;19912;-72
2022/03/25 00:56:52;;;;;;;;;;;2.90;99.90;;;;;;5051427;28;19917;-72
2022/03/25 00:59:18;;;;;;;;;;;2.50;99.90;;;;;;5051200;28;19993;-73
2022/03/25 01:01:43;;;;;;;;;;;2.90;99.90;;;;;;5051359;28;20001;-72
2022/03/25 01:04:09;;;;;;;;;;;2.80;99.90;;;;;;5050995;28;19971;-72
2022/03/25 01:06:35;;;;;;;;;;;2.80;99.90;;;;;;5051248;28;19960;-72
2022/03/25 01:09:02;;;;;;;;;;;2.80;99.90;;;;;;5052182;28;19913;-71
2022/03/25 01:11:27;;;;;;;;;;;2.80;99.90;;;;;;5055159;28;19971;-71
2022/03/25 01:13:53;;;;;;;;;;;2.80;99.90;;;;;;5055170;28;19912;-72
2022/03/25 01:16:19;;;;;;;;;;;2.80;99.90;;;;;;5053643;28;19956;-72
2022/03/25 01:18:44;;;;;;;;;;;2.80;99.90;;;;;;5053603;28;19909;-72
2022/03/25 01:21:10;;;;;;;;;;;2.80;99.90;;;;;;5055075;28;19924;-73
2022/03/25 01:23:36;;;;;;;;;;;2.80;99.90;;;;;;5054902;28;20261;-72
2022/03/25 01:26:03;;;;;;;;;;;2.90;99.90;;;;;;5054657;28;19921;-73
2022/03/25 01:28:34;;;;;;;;;;;3.00;99.90;;;;;;5055100;28;20327;-72
2022/03/25 01:31:03;;;;;;;;;;;2.90;99.90;;;;;;5053639;28;19947;-72
2022/03/25 01:33:30;;;;;;;;;;;2.90;99.90;;;;;;5054654;28;19920;-73
2022/03/25 01:35:58;;;;;;;;;;;2.90;99.90;;;;;;5054701;28;20361;-72
2022/03/25 01:38:25;;;;;;;;;;;2.90;99.90;;;;;;5054787;28;19909;-71
2022/03/25 01:40:52;;;;;;;;;;;2.90;99.90;;;;;;5054634;28;19916;-72
2022/03/25 01:43:17;;;;;;;;;;;2.90;99.90;;;;;;5053168;28;20269;-72
2022/03/25 01:45:43;;;;;;;;;;;2.90;99.90;;;;;;5054697;28;19913;-71
2022/03/25 01:48:10;;;;;;;;;;;2.90;99.90;;;;;;5053068;28;19951;-71
2022/03/25 01:50:36;;;;;;;;;;;2.80;99.90;;;;;;5053320;28;20004;-72
2022/03/25 01:53:03;;;;;;;;;;;2.80;99.90;;;;;;5054353;28;19970;-72
2022/03/25 01:55:35;;;;;;;;;;;2.90;99.90;;;;;;5054371;28;19913;-71
2022/03/25 01:58:01;;;;;;;;;;;2.90;99.90;;;;;;5053157;28;19923;-71
2022/03/25 02:00:29;;;;;;;;;;;2.90;99.90;;;;;;5054352;28;19909;-72
2022/03/25 02:02:55;;;;;;;;;;;2.90;99.90;;;;;;5054330;28;20310;-73
2022/03/25 02:05:20;;;;;;;;;;;2.90;99.90;;;;;;5054008;28;19955;-73
2022/03/25 02:07:46;;;;;;;;;;;2.90;99.90;;;;;;5053916;28;19924;-70
2022/03/25 02:10:12;;;;;;;;;;;3.00;99.90;;;;;;5054119;28;20011;-72
2022/03/25 02:12:38;;;;;;;;;;;3.00;99.90;;;;;;5054456;28;19967;-73
2022/03/25 02:15:05;;;;;;;;;;;3.00;99.90;;;;;;5052774;28;19996;-72
2022/03/25 02:17:31;;;;;;;;;;;3.00;99.90;;;;;;5054420;28;19916;-71
2022/03/25 02:19:56;;;;;;;;;;;3.10;99.90;;;;;;5052626;28;19916;-71
2022/03/25 02:22:22;;;;;;;;;;;3.00;99.90;;;;;;5054251;28;19940;-72
2022/03/25 02:24:49;;;;;;;;;;;3.10;99.90;;;;;;5052598;28;20315;-72
2022/03/25 02:27:16;;;;;;;;;;;3.10;99.90;;;;;;5054011;28;19925;-72
2022/03/25 02:29:43;;;;;;;;;;;3.10;99.90;;;;;;5053811;28;20380;-72
2022/03/25 02:32:08;;;;;;;;;;;3.10;99.90;;;;;;5048098;28;19921;-71
2022/03/25 02:34:34;;;;;;;;;;;3.10;99.90;;;;;;5040947;28;19909;-71
2022/03/25 02:37:01;;;;;;;;;;;3.10;99.90;;;;;;5032425;28;19917;-71
2022/03/25 02:39:28;;;;;;;;;;;3.20;99.90;;;;;;5033477;28;19909;-71
2022/03/25 02:41:53;;;;;;;;;;;3.20;99.90;;;;;;5033756;28;19917;-72
2022/03/25 02:44:19;;;;;;;;;;;3.30;99.90;;;;;;5033549;28;19909;-71
2022/03/25 02:46:44;;;;;;;;;;;3.30;99.90;;;;;;5033613;28;19929;-71
2022/03/25 02:49:11;;;;;;;;;;;3.30;99.90;;;;;;5032060;28;19909;-72
2022/03/25 02:51:37;;;;;;;;;;;3.40;99.90;;;;;;5032182;28;19917;-71
2022/03/25 02:54:03;;;;;;;;;;;3.40;99.90;;;;;;5033316;28;20016;-72
2022/03/25 02:56:28;;;;;;;;;;;3.30;99.90;;;;;;5033528;28;19967;-72
2022/03/25 02:58:54;;;;;;;;;;;3.40;99.90;;;;;;5033046;28;19909;-72
2022/03/25 03:01:20;;;;;;;;;;;3.40;99.90;;;;;;5033152;28;19971;-74
2022/03/25 03:03:46;;;;;;;;;;;3.40;99.90;;;;;;5032783;28;20388;-71
2022/03/25 03:06:12;;;;;;;;;;;3.40;99.90;;;;;;5033114;28;19925;-72
2022/03/25 03:08:37;;;;;;;;;;;3.50;99.90;;;;;;5032837;28;20399;-72
2022/03/25 03:11:03;;;;;;;;;;;3.40;99.90;;;;;;5033023;28;20369;-73
2022/03/25 03:13:28;;;;;;;;;;;3.40;99.90;;;;;;5031420;28;19913;-72
2022/03/25 03:15:54;;;;;;;;;;;3.50;99.90;;;;;;5032880;28;21823;-72
2022/03/25 03:18:22;;;;;;;;;;;3.40;99.90;;;;;;5031540;28;20281;-72
2022/03/25 03:20:48;;;;;;;;;;;3.40;99.90;;;;;;5032844;28;19920;-72
2022/03/25 03:23:14;;;;;;;;;;;3.50;99.90;;;;;;5031607;28;20408;-72
2022/03/25 03:25:39;;;;;;;;;;;3.50;99.90;;;;;;5031339;28;20004;-72
2022/03/25 03:28:05;;;;;;;;;;;3.50;99.90;;;;;;5031214;28;20379;-73
2022/03/25 03:30:31;;;;;;;;;;;3.50;99.90;;;;;;5030850;28;19992;-72
2022/03/25 03:33:04;;;;;;;;;;;3.50;99.90;;;;;;5032420;28;19964;-71
2022/03/25 03:35:30;;;;;;;;;;;3.50;99.90;;;;;;5031222;28;19909;-72
2022/03/25 03:37:56;;;;;;;;;;;3.40;99.90;;;;;;5031199;28;19921;-71
2022/03/25 03:40:22;;;;;;;;;;;3.50;99.90;;;;;;5030992;28;19917;-71
2022/03/25 03:42:47;;;;;;;;;;;3.50;99.90;;;;;;5030879;28;19917;-73
2022/03/25 03:45:14;;;;;;;;;;;3.50;99.90;;;;;;5032343;28;19909;-72
2022/03/25 03:47:40;;;;;;;;;;;3.40;99.90;;;;;;5032802;28;20261;-72
2022/03/25 03:50:07;;;;;;;;;;;3.40;99.90;;;;;;5032767;28;20015;-73
2022/03/25 03:52:32;;;;;;;;;;;3.50;99.90;;;;;;5031021;28;19917;-72
2022/03/25 03:54:58;;;;;;;;;;;3.40;99.90;;;;;;5032011;28;19986;-73
2022/03/25 03:57:24;;;;;;;;;;;3.40;99.90;;;;;;5030926;28;19966;-73
2022/03/25 03:59:49;;;;;;;;;;;3.40;99.90;;;;;;5030612;28;19909;-73
2022/03/25 04:02:15;;;;;;;;;;;3.50;99.90;;;;;;5032401;28;19923;-72
2022/03/25 04:04:41;;;;;;;;;;;3.50;99.90;;;;;;5031703;28;19987;-73
2022/03/25 04:07:07;;;;;;;;;;;3.50;99.90;;;;;;5032207;28;20436;-71
2022/03/25 04:09:34;;;;;;;;;;;3.60;99.90;;;;;;5031765;28;19960;-72
2022/03/25 04:12:01;;;;;;;;;;;3.50;99.90;;;;;;5032053;28;19924;-72
2022/03/25 04:14:26;;;;;;;;;;;3.50;99.90;;;;;;5030498;28;19909;-72
2022/03/25 04:16:52;;;;;;;;;;;3.50;99.90;;;;;;5032075;28;20312;-72
2022/03/25 04:19:17;;;;;;;;;;;3.50;99.90;;;;;;5030376;28;20349;-73
2022/03/25 04:21:43;;;;;;;;;;;3.50;99.90;;;;;;5031935;28;19917;-71
2022/03/25 04:24:08;;;;;;;;;;;3.60;99.90;;;;;;5032283;28;19909;-72
2022/03/25 04:26:34;;;;;;;;;;;3.60;99.90;;;;;;5030152;28;19921;-72
2022/03/25 04:28:59;;;;;;;;;;;3.70;99.90;;;;;;5046842;28;20361;-73
2022/03/25 04:31:25;;;;;;;;;;;3.60;99.90;;;;;;5031635;28;19917;-72
2022/03/25 04:33:51;;;;;;;;;;;3.60;99.90;;;;;;5030350;28;19914;-74
2022/03/25 04:36:16;;;;;;;;;;;3.50;99.90;;;;;;5031608;28;20000;-72
2022/03/25 04:38:42;;;;;;;;;;;3.60;99.90;;;;;;5031491;28;19917;-72
2022/03/25 04:41:10;;;;;;;;;;;3.60;99.90;;;;;;5029961;28;19964;-72
2022/03/25 04:43:36;;;;;;;;;;;3.70;99.90;;;;;;5030716;28;19955;-72
2022/03/25 04:46:02;;;;;;;;;;;3.70;99.90;;;;;;5031435;28;19925;-72
2022/03/25 04:48:28;;;;;;;;;;;3.80;99.90;;;;;;5031418;28;19920;-73
2022/03/25 04:50:53;;;;;;;;;;;3.80;99.90;;;;;;5030291;28;19913;-73
2022/03/25 04:53:19;;;;;;;;;;;3.90;99.90;;;;;;5031371;28;19921;-72
2022/03/25 04:55:44;;;;;;;;;;;3.90;99.90;;;;;;5029855;28;19909;-72
2022/03/25 04:58:10;;;;;;;;;;;4.00;99.90;;;;;;5031181;28;19913;-72
2022/03/25 05:00:37;;;;;;;;;;;4.00;99.90;;;;;;5029763;28;19913;-76
2022/03/25 05:03:03;;;;;;;;;;;4.10;99.90;;;;;;5030912;28;19921;-71
2022/03/25 05:05:30;;;;;;;;;;;4.20;99.90;;;;;;5031149;28;19936;-72
2022/03/25 05:07:55;;;;;;;;;;;4.30;99.90;;;;;;5031548;28;20372;-72
2022/03/25 05:10:21;;;;;;;;;;;4.40;99.90;;;;;;5029673;28;19913;-71
2022/03/25 05:12:46;;;;;;;;;;;4.60;99.90;;;;;;5030050;28;19917;-72
2022/03/25 05:15:12;;;;;;;;;;;4.60;99.90;;;;;;5030991;28;19913;-72
2022/03/25 05:17:45;;;;;;;;;;;4.60;99.90;;;;;;5031546;28;19917;-71
2022/03/25 05:20:10;;;;;;;;;;;4.70;99.90;;;;;;5031130;28;19913;-74
2022/03/25 05:22:36;;;;;;;;;;;4.80;99.90;;;;;;5031015;28;19914;-72
2022/03/25 05:25:06;;;;;;;;;;;4.70;99.90;;;;;;5031079;28;19939;-72
2022/03/25 05:27:42;;;;;;;;;;;4.70;99.90;;;;;;5031321;28;19917;-74
2022/03/25 05:30:08;;;;;;;;;;;4.80;99.90;;;;;;5031165;28;19913;-72
2022/03/25 05:32:33;;;;;;;;;;;4.80;99.90;;;;;;5031177;28;20012;-72
2022/03/25 05:34:59;;;;;;;;;;;4.90;99.90;;;;;;5031061;28;19920;-72
2022/03/25 05:37:24;;;;;;;;;;;5.00;99.90;;;;;;5031130;28;20005;-73
2022/03/25 05:39:50;;;;;;;;;;;5.00;99.90;;;;;;5030873;28;19914;-73
2022/03/25 05:42:16;;;;;;;;;;;4.90;99.90;;;;;;5029501;28;20352;-72
2022/03/25 05:44:41;;;;;;;;;;;4.80;99.90;;;;;;5030923;28;19913;-74
2022/03/25 05:47:07;;;;;;;;;;;4.80;99.90;;;;;;5031018;28;19978;-73
2022/03/25 05:49:34;;;;;;;;;;;4.80;99.90;;;;;;5030823;28;20307;-72
2022/03/25 05:51:59;;;;;;;;;;;4.90;99.90;;;;;;5030687;28;19921;-72
2022/03/25 05:54:25;;;;;;;;;;;4.90;99.90;;;;;;5031992;28;19913;-73
2022/03/25 05:56:50;;;;;;;;;;;4.90;99.90;;;;;;5034572;28;19914;-74
2022/03/25 05:59:16;;;;;;;;;;;4.90;99.90;;;;;;5034270;28;19913;-73
2022/03/25 06:01:42;;;;;;;;;;;4.80;99.90;;;;;;5049543;28;19962;-73
2022/03/25 06:04:07;;;;;;;;;;;4.80;99.90;;;;;;5034083;28;20399;-74
2022/03/25 06:06:33;;;;;;;;;;;4.80;99.90;;;;;;5034582;28;19928;-73
2022/03/25 06:08:58;;;;;;;;;;;4.90;99.90;;;;;;5034042;28;19936;-72
2022/03/25 06:11:24;;;;;;;;;;;5.00;99.90;;;;;;5034208;28;20341;-73
2022/03/25 06:13:50;;;;;;;;;;;5.10;99.90;;;;;;5032712;28;19915;-73
2022/03/25 06:16:17;;;;;;;;;;;5.20;99.90;;;;;;5034018;28;19921;-74
2022/03/25 06:18:42;;;;;;;;;;;5.30;99.90;;;;;;5034305;28;19916;-73
2022/03/25 06:21:08;;;;;;;;;;;5.30;99.90;;;;;;5032646;28;19921;-74
2022/03/25 06:23:33;;;;;;;;;;;5.30;99.90;;;;;;5033997;28;19921;-74
2022/03/25 06:25:59;;;;;;;;;;;5.30;99.90;;;;;;5033694;28;19921;-74
2022/03/25 06:28:25;;;;;;;;;;;5.40;99.90;;;;;;5033832;28;19992;-73
2022/03/25 06:30:51;;;;;;;;;;;5.40;99.90;;;;;;5033899;28;19909;-74
2022/03/25 06:33:16;;;;;;;;;;;5.50;99.90;;;;;;5032440;28;19909;-74
2022/03/25 06:35:44;;;;;;;;;;;5.60;99.90;;;;;;5033827;28;19916;-73
2022/03/25 06:38:10;;;;;;;;;;;5.80;99.90;;;;;;5033512;28;20380;-73
2022/03/25 06:40:36;;;;;;;;;;;5.90;99.90;;;;;;5032322;28;19913;-74
2022/03/25 06:43:02;;;;;;;;;;;6.20;99.90;;;;;;5032333;28;20298;-75
2022/03/25 06:45:27;;;;;;;;;;;6.50;99.90;;;;;;5033800;28;19913;-73
2022/03/25 06:47:53;;;;;;;;;;;6.60;99.90;;;;;;5032294;28;19924;-73
2022/03/25 06:50:21;;;;;;;;;;;6.80;99.90;;;;;;5033412;28;19956;-72
2022/03/25 06:52:46;;;;;;;;;;;7.10;99.90;;;;;;5033276;28;19921;-73
2022/03/25 06:55:12;;;;;;;;;;;7.20;99.90;;;;;;5033626;28;20313;-72
2022/03/25 06:57:38;;;;;;;;;;;7.40;99.90;;;;;;5033579;28;20008;-74
2022/03/25 07:00:05;;;;;;;;;;;7.50;99.90;;;;;;5031997;28;20039;-74
2022/03/25 07:02:30;;;;;;;;;;;7.60;99.90;;;;;;5033580;28;19955;-75
2022/03/25 07:04:56;;;;;;;;;;;7.70;99.90;;;;;;5033007;28;20393;-74
2022/03/25 07:07:26;;;;;;;;;;;7.80;99.90;;;;;;5031077;28;20288;-74
2022/03/25 07:09:55;;;;;;;;;;;7.90;99.90;;;;;;5032983;28;19909;-75
2022/03/25 07:12:20;;;;;;;;;;;8.10;99.90;;;;;;5032032;28;19978;-75
2022/03/25 07:14:46;;;;;;;;;;;8.20;99.90;;;;;;5031863;28;19944;-76
2022/03/25 07:17:11;;;;;;;;;;;8.30;99.90;;;;;;5032882;28;19925;-76
2022/03/25 07:19:37;;;;;;;;;;;8.40;99.90;;;;;;5033260;28;19913;-75
2022/03/25 07:22:03;;;;;;;;;;;8.60;99.90;;;;;;5033146;28;19979;-74
2022/03/25 07:24:29;;;;;;;;;;;8.70;99.90;;;;;;5032695;28;19968;-72
2022/03/25 07:26:55;;;;;;;;;;;8.80;99.90;;;;;;5032772;28;20058;-73
2022/03/25 07:29:20;;;;;;;;;;;8.90;99.90;;;;;;5031138;28;20373;-74
2022/03/25 07:31:46;;;;;;;;;;;9.00;99.90;;;;;;5031299;28;20369;-74
2022/03/25 07:34:11;;;;;;;;;;;9.20;99.90;;;;;;5032414;28;20012;-73
2022/03/25 07:36:37;;;;;;;;;;;9.20;99.90;;;;;;5031331;28;20008;-73
2022/03/25 07:39:03;;;;;;;;;;;9.30;99.90;;;;;;5031407;28;19909;-73
2022/03/25 07:41:29;;;;;;;;;;;9.40;99.90;;;;;;5031185;28;20352;-73
2022/03/25 07:43:54;;;;;;;;;;;9.40;99.90;;;;;;5032349;28;19936;-73
2022/03/25 07:46:20;;;;;;;;;;;9.60;99.90;;;;;;5030943;28;20369;-74
2022/03/25 07:48:45;;;;;;;;;;;9.70;99.90;;;;;;5032307;28;19909;-73
2022/03/25 07:51:11;;;;;;;;;;;9.60;99.90;;;;;;5032310;28;19967;-74
2022/03/25 07:53:37;;;;;;;;;;;9.60;99.90;;;;;;5032207;28;19955;-73
2022/03/25 07:56:02;;;;;;;;;;;9.60;99.90;;;;;;5032215;28;20012;-73
2022/03/25 07:58:28;;;;;;;;;;;9.70;99.90;;;;;;5032194;28;19909;-73
2022/03/25 08:00:54;;;;;;;;;;;9.80;99.90;;;;;;5047582;28;20004;-75
2022/03/25 08:03:20;;;;;;;;;;;9.90;99.90;;;;;;5031798;28;19928;-75
2022/03/25 08:05:48;;;;;;;;;;;9.80;99.90;;;;;;5030556;28;19920;-75
2022/03/25 08:08:16;;;;;;;;;;;9.80;99.90;;;;;;5030500;28;20345;-75
2022/03/25 08:10:42;;;;;;;;;;;10.00;99.90;;;;;;5030590;28;20032;-74
2022/03/25 08:13:09;;;;;;;;;;;10.20;99.90;;;;;;5031779;28;20381;-75
2022/03/25 08:15:34;;;;;;;;;;;10.40;99.90;;;;;;5030508;28;19979;-75
2022/03/25 08:18:05;;;;;;;;;;;10.30;99.90;;;;;;5031635;28;19953;-74
2022/03/25 08:20:39;;;;;;;;;;;10.30;99.90;;;;;;5032074;28;19963;-74
2022/03/25 08:23:05;;;;;;;;;;;10.60;99.90;;;;;;5031534;28;20008;-73
2022/03/25 08:28:16;;;;;;;;;;;11.00;99.90;;;;;;5031785;28;20312;-74
2022/03/25 08:30:42;;;;;;;;;;;11.30;99.90;;;;;;5031791;28;19915;-74
2022/03/25 08:33:08;;;;;;;;;;;11.30;99.90;;;;;;5046806;28;19996;-74
2022/03/25 08:35:33;;;;;;;;;;;11.40;99.90;;;;;;5031632;28;19913;-74
2022/03/25 08:37:59;;;;;;;;;;;11.60;99.90;;;;;;5030393;28;20267;-74
2022/03/25 08:40:26;;;;;;;;;;;11.90;99.90;;;;;;5030349;28;20297;-74
2022/03/25 08:42:52;;;;;;;;;;;12.00;99.90;;;;;;5030198;28;19917;-75
2022/03/25 08:45:18;;;;;;;;;;;12.00;99.90;;;;;;5031259;28;20307;-74
2022/03/25 08:47:44;;;;;;;;;;;12.10;99.90;;;;;;5031741;28;19996;-74
2022/03/25 08:50:12;;;;;;;;;;;12.30;99.90;;;;;;5031162;28;20276;-74
2022/03/25 08:52:42;;;;;;;;;;;12.50;99.90;;;;;;5046831;28;20353;-74
2022/03/25 08:55:08;;;;;;;;;;;12.80;99.90;;;;;;5031264;28;19913;-73
2022/03/25 08:57:34;;;;;;;;;;;13.00;99.90;;;;;;5030153;28;20306;-75
2022/03/25 08:59:59;;;;;;;;;;;13.10;99.10;;;;;;5031339;28;20268;-73
2022/03/25 09:02:25;;;;;;;;;;;13.10;98.40;;;;;;5031170;28;19924;-74
2022/03/25 09:04:51;;;;;;;;;;;13.10;97.70;;;;;;5031266;28;19925;-73
2022/03/25 09:07:16;;;;;;;;;;;13.30;97.90;;;;;;5031429;28;19932;-73
2022/03/25 09:09:42;;;;;;;;;;;13.50;97.80;;;;;;5029562;28;19909;-73
2022/03/25 09:12:08;;;;;;;;;;;13.60;97.10;;;;;;5030991;28;19920;-72
2022/03/25 09:14:34;;;;;;;;;;;13.50;96.50;;;;;;5029742;28;20262;-73
2022/03/25 09:17:00;;;;;;;;;;;13.70;97.10;;;;;;5031251;28;19924;-72
2022/03/25 09:19:26;;;;;;;;;;;13.80;95.60;;;;;;5030937;28;19913;-72
2022/03/25 09:21:51;;;;;;;;;;;14.00;95.90;;;;;;5046344;28;19917;-73
2022/03/25 09:24:17;;;;;;;;;;;14.10;95.40;;;;;;5030895;28;19909;-71
2022/03/25 09:26:42;;;;;;;;;;;14.00;94.70;;;;;;5030745;28;19921;-74
2022/03/25 09:29:08;;;;;;;;;;;14.10;94.30;;;;;;5031825;28;19983;-74
2022/03/25 09:31:33;;;;;;;;;;;14.20;94.00;;;;;;5033433;28;19924;-74
2022/03/25 09:35:08;;;;;;;;;;;13.90;93.00;;;;;;5034590;28;19914;-74
2022/03/25 09:36:44;;;;;;;;;;;13.60;94.40;;;;;;5035008;28;19962;-74
2022/03/25 09:39:10;;;;;;;;;;;13.40;93.50;;;;;;5033231;28;19909;-75
2022/03/25 09:41:36;;;;;;;;;;;13.40;94.00;;;;;;5033082;28;19921;-75
2022/03/25 09:44:02;;;;;;;;;;;13.60;93.90;;;;;;5044521;28;19909;-77
2022/03/25 09:46:28;;;;;;;;;;;13.90;93.30;;;;;;5035854;28;20281;-74
2022/03/25 09:48:53;;;;;;;;;;;14.10;93.10;;;;;;5034474;28;19924;-74
2022/03/25 09:51:19;;;;;;;;;;;14.20;90.80;;;;;;5034379;28;19921;-73
2022/03/25 09:53:45;;;;;;;;;;;14.20;91.20;;;;;;5034389;28;19909;-75
2022/03/25 09:56:10;;;;;;;;;;;14.00;91.20;;;;;;5035035;28;20443;-76
2022/03/25 09:58:36;;;;;;;;;;;13.60;91.80;;;;;;5039938;28;20077;-78
2022/03/25 10:01:02;;;;;;;;;;;13.50;92.40;;;;;;5034154;28;19924;-76
2022/03/25 10:03:32;;;;;;;;;;;13.70;91.70;;;;;;5034232;28;19921;-73
2022/03/25 10:05:59;;;;;;;;;;;14.00;91.20;;;;;;5034155;28;19935;-75
2022/03/25 10:08:31;;;;;;;;;;;14.20;90.80;;;;;;5034184;28;19949;-75
2022/03/25 10:11:16;;;;;;;;;;;14.40;90.40;;;;;;5034040;28;20589;-74
2022/03/25 10:13:42;;;;;;;;;;;14.40;90.50;;;;;;5034187;28;19928;-75
2022/03/25 10:16:26;;;;;;;;;;;15.60;90.10;;;;;;5034261;28;19921;-75
2022/03/25 10:18:56;;;;;;;;;;;14.80;89.20;;;;;;5034148;28;20272;-73
2022/03/25 10:21:24;;;;;;;;;;;15.00;87.10;;;;;;5034109;28;20000;-74
2022/03/25 10:23:50;;;;;;;;;;;15.10;86.20;;;;;;5034124;28;20265;-74
2022/03/25 10:26:16;;;;;;;;;;;15.00;85.00;;;;;;5032642;28;19928;-73
2022/03/25 10:28:43;;;;;;;;;;;15.00;85.80;;;;;;5034364;28;19949;-74
2022/03/25 10:31:14;;;;;;;;;;;14.90;85.20;;;;;;5032816;28;20011;-76
2022/03/25 10:33:45;;;;;;;;;;;14.50;86.50;;;;;;5034439;28;19913;-77
2022/03/25 10:36:12;;;;;;;;;;;14.20;86.10;;;;;;5033659;28;20272;-77
2022/03/25 10:38:41;;;;;;;;;;;14.30;86.90;;;;;;5032462;28;19914;-77
2022/03/25 10:41:07;;;;;;;;;;;14.50;85.40;;;;;;5032440;28;19929;-77
2022/03/25 10:43:32;;;;;;;;;;;14.80;85.10;;;;;;5033566;28;19955;-78
2022/03/25 10:45:58;;;;;;;;;;;14.70;85.80;;;;;;5033577;28;20351;-75
2022/03/25 10:48:27;;;;;;;;;;;14.70;84.00;;;;;;5032177;28;19995;-76
2022/03/25 10:51:08;;;;;;;;;;;14.80;83.60;;;;;;5031817;28;20004;-76
2022/03/25 10:53:35;;;;;;;;;;;15.10;82.60;;;;;;5032931;28;19909;-75
2022/03/25 10:56:06;;;;;;;;;;;15.40;82.50;;;;;;5033563;28;19964;-77
2022/03/25 10:58:34;;;;;;;;;;;15.10;81.70;;;;;;5033461;28;19909;-76
2022/03/25 11:01:00;;;;;;;;;;;14.90;82.60;;;;;;5031674;28;20344;-75
2022/03/25 11:03:26;;;;;;;;;;;14.90;81.80;;;;;;5033161;28;19921;-76
2022/03/25 11:05:51;;;;;;;;;;;14.90;82.30;;;;;;5032900;28;19913;-75
2022/03/25 11:08:17;;;;;;;;;;;15.00;81.80;;;;;;5031916;28;19955;-77
2022/03/25 11:10:43;;;;;;;;;;;15.10;81.50;;;;;;5031798;28;20329;-76
2022/03/25 11:13:11;;;;;;;;;;;15.00;81.90;;;;;;5033772;28;19939;-76
2022/03/25 11:15:38;;;;;;;;;;;15.00;81.50;;;;;;5033179;28;19909;-76
2022/03/25 11:18:04;;;;;;;;;;;15.10;80.90;;;;;;5033065;28;19909;-77
2022/03/25 11:20:30;;;;;;;;;;;15.20;81.30;;;;;;5031675;28;19913;-76
2022/03/25 11:23:11;;;;;;;;;;;15.40;80.10;;;;;;5031370;28;19960;-76
2022/03/25 11:25:42;;;;;;;;;;;15.70;79.40;;;;;;5032703;28;19920;-75
2022/03/25 11:28:09;;;;;;;;;;;15.80;78.50;;;;;;5048026;28;19910;-78
2022/03/25 11:30:35;;;;;;;;;;;15.40;79.90;;;;;;5031488;28;20365;-77
2022/03/25 11:33:04;;;;;;;;;;;15.00;78.70;;;;;;5032696;28;19928;-76
2022/03/25 11:35:42;;;;;;;;;;;14.90;79.00;;;;;;5031442;28;19960;-77
2022/03/25 11:38:14;;;;;;;;;;;15.20;79.60;;;;;;5032588;28;19917;-76
2022/03/25 11:40:46;;;;;;;;;;;15.40;78.40;;;;;;5032632;28;19913;-76
2022/03/25 11:43:13;;;;;;;;;;;15.40;77.90;;;;;;5032637;28;19968;-75
2022/03/25 11:45:39;;;;;;;;;;;15.40;77.10;;;;;;5031010;28;20049;-75
2022/03/25 11:48:04;;;;;;;;;;;15.30;77.10;;;;;;5030867;28;20051;-74
2022/03/25 11:50:35;;;;;;;;;;;15.20;77.30;;;;;;5031456;28;19917;-74
2022/03/25 11:53:27;;;;;;;;;;;15.00;76.60;;;;;;5031999;28;19932;-74
2022/03/25 11:55:52;;;;;;;;;;;14.70;76.30;;;;;;5023749;28;19920;-76
2022/03/25 11:58:19;;;;;;;;;;;14.40;77.20;;;;;;5032302;28;20354;-76
2022/03/25 12:00:48;;;;;;;;;;;14.20;78.70;;;;;;5032693;28;19928;-75
2022/03/25 12:03:14;;;;;;;;;;;13.90;78.80;;;;;;5031851;28;20389;-76
2022/03/25 12:05:55;;;;;;;;;;;13.50;79.60;;;;;;5032593;28;19921;-78
2022/03/25 12:08:22;;;;;;;;;;;13.10;81.50;;;;;;5032278;28;19917;-76
2022/03/25 12:10:49;;;;;;;;;;;13.10;81.10;;;;;;5032261;28;20393;-76
2022/03/25 12:13:15;;;;;;;;;;;13.00;81.20;;;;;;5032201;28;19910;-76
2022/03/25 12:15:41;;;;;;;;;;;12.90;81.20;;;;;;5032082;28;19909;-75
2022/03/25 12:18:26;;;;;;;;;;;12.70;81.80;;;;;;5030383;28;19988;-76
2022/03/25 12:20:54;;;;;;;;;;;12.40;82.60;;;;;;5032005;28;20420;-76
2022/03/25 12:23:20;;;;;;;;;;;12.20;83.20;;;;;;5014256;28;19917;-75
2022/03/25 12:25:47;;;;;;;;;;;12.00;82.60;;;;;;5031981;28;19967;-75
2022/03/25 12:28:12;;;;;;;;;;;11.90;83.50;;;;;;5030771;28;19952;-77
2022/03/25 12:30:39;;;;;;;;;;;11.90;84.30;;;;;;5031667;28;19952;-75
2022/03/25 12:33:05;;;;;;;;;;;11.70;83.80;;;;;;5030444;28;20276;-76
2022/03/25 12:35:31;;;;;;;;;;;11.70;84.30;;;;;;5013904;28;19967;-76
2022/03/25 12:38:17;;;;;;;;;;;11.50;84.80;;;;;;5031944;28;19917;-76
2022/03/25 12:40:43;;;;;;;;;;;11.50;85.30;;;;;;5031631;28;19909;-76
2022/03/25 12:43:11;;;;;;;;;;;11.50;85.50;;;;;;5031687;28;19966;-76
2022/03/25 12:45:49;;;;;;;;;;;11.50;84.60;;;;;;5030208;28;19915;-77
2022/03/25 12:48:19;;;;;;;;;;;11.60;85.40;;;;;;5031458;28;19919;-76
2022/03/25 12:50:47;;;;;;;;;;;11.70;84.50;;;;;;5031365;28;19917;-75
2022/03/25 12:53:14;;;;;;;;;;;11.80;83.90;;;;;;5031503;28;19909;-77
2022/03/25 12:55:40;;;;;;;;;;;11.80;84.50;;;;;;5030152;28;19964;-74
2022/03/25 12:58:05;;;;;;;;;;;12.00;84.80;;;;;;5030091;28;19936;-76
2022/03/25 13:00:33;;;;;;;;;;;12.10;84.10;;;;;;5031758;28;20411;-75
2022/03/25 13:02:59;;;;;;;;;;;12.20;83.40;;;;;;5031280;28;19924;-75
2022/03/25 13:05:25;;;;;;;;;;;12.40;82.40;;;;;;5032733;28;19909;-75
2022/03/25 13:07:54;;;;;;;;;;;12.40;83.20;;;;;;5035525;28;20357;-76
2022/03/25 13:10:20;;;;;;;;;;;12.20;82.40;;;;;;5035595;28;19913;-76
2022/03/25 13:12:51;;;;;;;;;;;12.30;82.20;;;;;;5035903;28;20293;-76
2022/03/25 13:15:17;;;;;;;;;;;12.40;82.70;;;;;;5033877;28;19927;-76
2022/03/25 13:17:44;;;;;;;;;;;12.40;81.50;;;;;;5035058;28;19913;-77
2022/03/25 13:20:16;;;;;;;;;;;12.30;82.00;;;;;;5035128;28;19947;-76
2022/03/25 13:23:02;;;;;;;;;;;12.20;82.30;;;;;;5035044;28;19913;-76
2022/03/25 13:25:29;;;;;;;;;;;12.30;82.00;;;;;;5035072;28;19909;-77
2022/03/25 13:27:56;;;;;;;;;;;12.20;81.80;;;;;;5033532;28;20289;-78
2022/03/25 13:30:22;;;;;;;;;;;12.30;82.50;;;;;;5033729;28;19909;-77
2022/03/25 13:32:58;;;;;;;;;;;12.30;81.70;;;;;;5034498;28;19913;-76
2022/03/25 13:35:44;;;;;;;;;;;12.20;81.80;;;;;;5034023;28;19909;-76
2022/03/25 13:38:12;;;;;;;;;;;12.20;81.20;;;;;;5034399;28;20405;-76
2022/03/25 13:40:43;;;;;;;;;;;12.20;81.20;;;;;;5033578;28;19913;-76
2022/03/25 13:43:12;;;;;;;;;;;12.10;79.70;;;;;;5034630;28;19921;-76
2022/03/25 13:45:38;;;;;;;;;;;12.00;79.40;;;;;;5034964;28;19923;-75
2022/03/25 13:48:06;;;;;;;;;;;11.90;79.80;;;;;;5034518;28;20011;-76
2022/03/25 13:50:32;;;;;;;;;;;11.70;80.20;;;;;;5033719;28;19939;-76
2022/03/25 13:53:09;;;;;;;;;;;11.70;77.60;;;;;;5049794;28;19921;-76
2022/03/25 13:55:36;;;;;;;;;;;11.70;78.20;;;;;;5033672;28;19959;-76
2022/03/25 13:58:03;;;;;;;;;;;11.70;75.80;;;;;;5033033;28;19918;-75
2022/03/25 14:00:35;;;;;;;;;;;11.70;74.90;;;;;;5033121;28;19936;-76
2022/03/25 14:03:01;;;;;;;;;;;11.60;74.80;;;;;;5034122;28;19925;-75
2022/03/25 14:05:31;;;;;;;;;;;11.60;74.90;;;;;;5034674;28;19909;-75
2022/03/25 14:07:58;;;;;;;;;;;11.60;75.40;;;;;;5034568;28;20329;-77
2022/03/25 14:10:25;;;;;;;;;;;11.60;75.80;;;;;;5034703;28;19910;-76
2022/03/25 14:12:56;;;;;;;;;;;11.70;75.40;;;;;;5034275;28;19916;-76
2022/03/25 14:15:24;;;;;;;;;;;11.70;75.50;;;;;;5034402;28;19984;-76
2022/03/25 14:17:51;;;;;;;;;;;11.70;74.30;;;;;;5034520;28;20384;-77
2022/03/25 14:20:17;;;;;;;;;;;11.70;74.20;;;;;;5034239;28;20003;-76
2022/03/25 14:22:44;;;;;;;;;;;11.60;74.90;;;;;;5034273;28;19910;-76
2022/03/25 14:25:13;;;;;;;;;;;11.60;75.80;;;;;;5034080;28;19960;-76